Terminal Aerodrome Forecast
Issued by NWS Sioux Falls, SD

Home | Current Version | Previous Version | Graphics & Text | Print | Product List | Glossary On
Versions: 1 2 3 4 5 6 7 8 9 10 11 12 13 14 15 16 17 18 19 20 21 22 23 24 25 26 27 28
000
FTUS43 KFSD 202300
TAFSUX
TAF
KSUX 202340Z 2100/2124 14012KT P6SM SCT100 BKN180
     FM210300 13010KT P6SM SCT100
     FM210700 15009KT P6SM SCT050
     FM211000 16008KT 6SM BR SCT120 BKN200
     FM211500 19010KT P6SM BKN090
     FM211800 21010KT P6SM SCT035 SCT100=

USA.gov is the U.S. government's official web portal to all federal, state and local government web resources and services.